Time;durP1;ratioP1;P1;durP2;ratioP2;P2;SDS_P1;SDS_P2;PMS_P1;PMS_P2;Temp;Humidity;BMP_temperature;BMP_pressure;BME280_temperature;BME280_humidity;BME280_pressure;Samples;Min_cycle;Max_cycle;Signal;HPM_P1;HPM_P2
2022/06/23 00:01:26;;;;;;;35.10;25.97;;;;;;;;;;5048547;28;20901;-41
2022/06/23 00:03:54;;;;;;;40.77;28.50;;;;;;;;;;5052971;28;20178;-42
2022/06/23 00:06:36;;;;;;;40.87;30.03;;;;;;;;;;5051928;28;20179;-41
2022/06/23 00:09:02;;;;;;;39.80;30.67;;;;;;;;;;5050528;28;20252;-42
2022/06/23 00:11:29;;;;;;;31.67;26.97;;;;;;;;;;5051247;28;20676;-41
2022/06/23 00:14:05;;;;;;;37.77;27.33;;;;;;;;;;5050255;28;20250;-41
2022/06/23 00:16:31;;;;;;;41.10;30.00;;;;;;;;;;5048210;28;20849;-40
2022/06/23 00:18:57;;;;;;;40.93;29.77;;;;;;;;;;5050609;28;20175;-42
2022/06/23 00:21:26;;;;;;;37.03;27.87;;;;;;;;;;5047282;28;20352;-41
2022/06/23 00:23:55;;;;;;;41.03;30.60;;;;;;;;;;5052626;28;20175;-41
2022/06/23 00:26:32;;;;;;;40.73;29.47;;;;;;;;;;5050344;28;21030;-41
2022/06/23 00:29:04;;;;;;;34.53;26.90;;;;;;;;;;5045993;28;20618;-40
2022/06/23 00:31:35;;;;;;;31.30;24.00;;;;;;;;;;5050900;28;20183;-41
2022/06/23 00:34:14;;;;;;;35.67;26.07;;;;;;;;;;5053651;28;20571;-41
2022/06/23 00:36:43;;;;;;;39.93;24.57;;;;;;;;;;5048140;28;20194;-41
2022/06/23 00:39:28;;;;;;;40.77;24.83;;;;;;;;;;5045564;28;20588;-41
2022/06/23 00:41:54;;;;;;;43.50;25.23;;;;;;;;;;5045693;28;20488;-41
2022/06/23 00:44:47;;;;;;;40.50;23.70;;;;;;;;;;5039275;28;20294;-42
2022/06/23 00:47:14;;;;;;;39.63;22.43;;;;;;;;;;5026331;28;20198;-42
2022/06/23 00:49:48;;;;;;;40.23;22.00;;;;;;;;;;5040403;28;20200;-42
2022/06/23 00:52:23;;;;;;;44.97;20.87;;;;;;;;;;5040110;28;20250;-41
2022/06/23 00:54:52;;;;;;;42.57;21.93;;;;;;;;;;5037970;28;20397;-41
2022/06/23 00:57:21;;;;;;;42.77;22.43;;;;;;;;;;5044024;28;20300;-42
2022/06/23 01:00:06;;;;;;;37.00;18.53;;;;;;;;;;5039489;28;20175;-41
2022/06/23 01:02:59;;;;;;;39.40;20.87;;;;;;;;;;5041033;28;20170;-42
2022/06/23 01:05:33;;;;;;;40.90;18.77;;;;;;;;;;5016026;28;20186;-40
2022/06/23 01:08:06;;;;;;;47.43;21.13;;;;;;;;;;5041735;28;20591;-41
2022/06/23 01:10:45;;;;;;;39.80;18.87;;;;;;;;;;5043717;28;20174;-42
2022/06/23 01:13:20;;;;;;;44.33;19.53;;;;;;;;;;5050747;28;20190;-40
2022/06/23 01:15:50;;;;;;;41.50;18.47;;;;;;;;;;5044441;28;20294;-41
2022/06/23 01:18:20;;;;;;;39.93;17.03;;;;;;;;;;5041346;28;20179;-41
2022/06/23 01:20:49;;;;;;;43.47;17.90;;;;;;;;;;5040657;28;20249;-42
2022/06/23 01:23:33;;;;;;;40.80;16.27;;;;;;;;;;5042784;28;20217;-42
2022/06/23 01:26:14;;;;;;;37.80;16.67;;;;;;;;;;5042002;28;20186;-42
2022/06/23 01:28:41;;;;;;;44.40;16.37;;;;;;;;;;5038559;28;20189;-42
2022/06/23 01:31:13;;;;;;;34.03;16.40;;;;;;;;;;5044198;28;20655;-42
2022/06/23 01:33:39;;;;;;;43.77;17.67;;;;;;;;;;5042508;28;20182;-42
2022/06/23 01:36:08;;;;;;;49.60;18.23;;;;;;;;;;5042468;28;20605;-41
2022/06/23 01:38:48;;;;;;;41.63;16.70;;;;;;;;;;5044035;28;20986;-41
2022/06/23 01:41:20;;;;;;;41.47;17.87;;;;;;;;;;5045188;28;20550;-42
2022/06/23 01:43:52;;;;;;;38.37;15.80;;;;;;;;;;5051692;28;20224;-41
2022/06/23 01:46:27;;;;;;;42.70;17.07;;;;;;;;;;5050732;28;20233;-42
2022/06/23 01:49:00;;;;;;;46.93;18.33;;;;;;;;;;5055795;28;20179;-41
2022/06/23 01:51:29;;;;;;;38.43;16.30;;;;;;;;;;5054710;28;20187;-41
2022/06/23 01:54:07;;;;;;;40.10;16.73;;;;;;;;;;5052408;28;20215;-42
2022/06/23 01:56:51;;;;;;;45.07;15.60;;;;;;;;;;5050765;28;20850;-42
2022/06/23 01:59:47;;;;;;;45.43;15.03;;;;;;;;;;5050168;28;20267;-42
2022/06/23 02:02:19;;;;;;;37.40;14.07;;;;;;;;;;5037041;28;20527;-42
2022/06/23 02:04:54;;;;;;;40.07;13.50;;;;;;;;;;5049751;28;21593;-41
2022/06/23 02:07:20;;;;;;;38.43;13.20;;;;;;;;;;5054404;28;20676;-40
2022/06/23 02:09:49;;;;;;;34.07;11.30;;;;;;;;;;5051987;28;20877;-41
2022/06/23 02:12:20;;;;;;;32.77;11.53;;;;;;;;;;5049688;28;21145;-40
2022/06/23 02:14:57;;;;;;;36.87;10.67;;;;;;;;;;5049953;28;21016;-42
2022/06/23 02:17:36;;;;;;;36.43;11.27;;;;;;;;;;5050206;28;20923;-41
2022/06/23 02:20:17;;;;;;;43.27;10.50;;;;;;;;;;5049824;28;20729;-42
2022/06/23 02:22:45;;;;;;;31.93;10.13;;;;;;;;;;5050131;28;20224;-42
2022/06/23 02:25:16;;;;;;;28.90;9.87;;;;;;;;;;5049041;28;20236;-41
2022/06/23 02:27:49;;;;;;;32.03;9.57;;;;;;;;;;5049054;28;20190;-43
2022/06/23 02:30:19;;;;;;;29.43;9.83;;;;;;;;;;5047903;28;20696;-42
2022/06/23 02:33:00;;;;;;;33.63;10.60;;;;;;;;;;5051059;28;21094;-42
2022/06/23 02:35:26;;;;;;;34.43;10.33;;;;;;;;;;5048202;28;20770;-42
2022/06/23 02:38:11;;;;;;;31.93;9.33;;;;;;;;;;5052432;28;20698;-42
2022/06/23 02:40:46;;;;;;;32.10;9.47;;;;;;;;;;5046076;28;20182;-41
2022/06/23 02:43:22;;;;;;;31.03;8.07;;;;;;;;;;5047256;28;20635;-42
2022/06/23 02:45:50;;;;;;;36.90;9.60;;;;;;;;;;5054577;28;20535;-42
2022/06/23 02:48:23;;;;;;;32.97;9.63;;;;;;;;;;5047073;28;20833;-42
2022/06/23 02:50:55;;;;;;;26.07;8.17;;;;;;;;;;5050645;28;20647;-42
2022/06/23 02:53:21;;;;;;;32.10;9.20;;;;;;;;;;5054487;28;21213;-42
2022/06/23 02:55:50;;;;;;;24.60;9.13;;;;;;;;;;5052717;28;20206;-42
2022/06/23 02:58:16;;;;;;;34.43;9.63;;;;;;;;;;5051206;28;20246;-42
2022/06/23 03:00:46;;;;;;;30.80;9.03;;;;;;;;;;5052782;28;20179;-42
2022/06/23 03:03:20;;;;;;;28.37;8.73;;;;;;;;;;5050739;28;20278;-44
2022/06/23 03:05:52;;;;;;;28.10;8.83;;;;;;;;;;5044710;28;20258;-42
2022/06/23 03:08:37;;;;;;;38.87;10.00;;;;;;;;;;5053605;28;20197;-42
2022/06/23 03:11:19;;;;;;;37.23;9.37;;;;;;;;;;5050267;28;20248;-42
2022/06/23 03:13:49;;;;;;;27.80;8.17;;;;;;;;;;5048152;28;20273;-42
2022/06/23 03:16:28;;;;;;;35.90;8.97;;;;;;;;;;5055889;28;20630;-42
2022/06/23 03:18:54;;;;;;;40.93;9.57;;;;;;;;;;5051490;28;20239;-42
2022/06/23 03:21:32;;;;;;;31.60;8.83;;;;;;;;;;5050162;28;20198;-41
2022/06/23 03:24:10;;;;;;;30.13;8.63;;;;;;;;;;5054712;28;20201;-42
2022/06/23 03:26:43;;;;;;;37.77;9.90;;;;;;;;;;5049345;28;20175;-42
2022/06/23 03:29:15;;;;;;;32.83;9.27;;;;;;;;;;5045973;28;20186;-42
2022/06/23 03:31:48;;;;;;;31.07;9.30;;;;;;;;;;5038510;28;21468;-42
2022/06/23 03:34:21;;;;;;;37.40;9.50;;;;;;;;;;5042742;28;20187;-42
2022/06/23 03:36:50;;;;;;;32.53;8.77;;;;;;;;;;5037461;28;20227;-41
2022/06/23 03:42:23;;;;;;;31.03;9.30;;;;;;;;;;5040295;28;20514;-40
2022/06/23 03:44:55;;;;;;;37.90;9.87;;;;;;;;;;5039933;28;20784;-42
2022/06/23 03:47:36;;;;;;;39.93;10.53;;;;;;;;;;5040228;28;20179;-42
2022/06/23 03:50:05;;;;;;;37.77;9.90;;;;;;;;;;5041317;28;20191;-42
2022/06/23 03:52:36;;;;;;;28.67;9.50;;;;;;;;;;5040519;28;20506;-41
2022/06/23 03:55:18;;;;;;;36.33;10.17;;;;;;;;;;5045701;28;20360;-41
2022/06/23 03:57:47;;;;;;;38.83;9.77;;;;;;;;;;5043559;28;20203;-42
2022/06/23 04:00:17;;;;;;;32.63;9.93;;;;;;;;;;5038595;28;20726;-42
2022/06/23 04:02:45;;;;;;;38.37;10.10;;;;;;;;;;5044548;28;20175;-42
2022/06/23 04:05:29;;;;;;;34.03;9.93;;;;;;;;;;5038218;28;20184;-42
2022/06/23 04:08:02;;;;;;;42.33;11.37;;;;;;;;;;5041492;28;20694;-41
2022/06/23 04:10:30;;;;;;;41.80;11.67;;;;;;;;;;5058232;27;20206;-42
2022/06/23 04:13:00;;;;;;;46.30;12.67;;;;;;;;;;5043163;28;20730;-42
2022/06/23 04:15:36;;;;;;;41.87;12.73;;;;;;;;;;5042822;28;20225;-41
2022/06/23 04:18:05;;;;;;;37.90;12.50;;;;;;;;;;5049661;28;20618;-42
2022/06/23 04:20:37;;;;;;;46.30;14.33;;;;;;;;;;5041984;28;20272;-42
2022/06/23 04:23:06;;;;;;;37.50;12.33;;;;;;;;;;5043897;28;20186;-42
2022/06/23 04:25:41;;;;;;;46.77;15.03;;;;;;;;;;5043177;28;20415;-42
2022/06/23 04:28:12;;;;;;;44.33;13.90;;;;;;;;;;5038898;28;20638;-42
2022/06/23 04:30:40;;;;;;;47.87;14.97;;;;;;;;;;5042431;28;20581;-42
2022/06/23 04:33:14;;;;;;;46.97;14.60;;;;;;;;;;5038653;28;20199;-42
2022/06/23 04:35:40;;;;;;;39.90;15.60;;;;;;;;;;5039191;28;20863;-42
2022/06/23 04:38:09;;;;;;;47.97;17.30;;;;;;;;;;5038522;28;20966;-41
2022/06/23 04:40:46;;;;;;;63.13;18.27;;;;;;;;;;5042370;28;20177;-40
2022/06/23 04:43:41;;;;;;;49.07;16.07;;;;;;;;;;5039734;28;20606;-40
2022/06/23 04:46:15;;;;;;;49.80;17.90;;;;;;;;;;5022881;28;20183;-42
2022/06/23 04:48:44;;;;;;;51.13;17.20;;;;;;;;;;5041655;28;20175;-42
2022/06/23 04:51:22;;;;;;;47.70;17.93;;;;;;;;;;5038027;28;20464;-42
2022/06/23 04:53:49;;;;;;;52.97;18.23;;;;;;;;;;5041840;28;20183;-42
2022/06/23 04:56:18;;;;;;;38.23;16.40;;;;;;;;;;5048709;28;20674;-41
2022/06/23 04:58:52;;;;;;;40.93;17.37;;;;;;;;;;5054907;28;20578;-41
2022/06/23 05:01:19;;;;;;;52.43;18.10;;;;;;;;;;5047363;28;20182;-41
2022/06/23 05:03:49;;;;;;;63.77;18.20;;;;;;;;;;5041069;28;20680;-40
2022/06/23 05:06:18;;;;;;;37.87;15.60;;;;;;;;;;5043423;28;20746;-42
2022/06/23 05:08:45;;;;;;;49.03;16.67;;;;;;;;;;5049255;28;20179;-42
2022/06/23 05:11:30;;;;;;;43.57;16.30;;;;;;;;;;5048855;28;20689;-42
2022/06/23 05:14:02;;;;;;;36.30;14.07;;;;;;;;;;5050312;28;20184;-42
2022/06/23 05:16:31;;;;;;;47.00;13.87;;;;;;;;;;5049317;28;21106;-42
2022/06/23 05:19:00;;;;;;;36.83;12.47;;;;;;;;;;5043122;28;20267;-42
2022/06/23 05:21:31;;;;;;;35.53;11.77;;;;;;;;;;5054514;28;20239;-42
2022/06/23 05:24:16;;;;;;;42.63;11.43;;;;;;;;;;5045193;28;20189;-42
2022/06/23 05:26:46;;;;;;;35.67;10.60;;;;;;;;;;5044757;28;20708;-42
2022/06/23 05:29:18;;;;;;;35.17;10.17;;;;;;;;;;5049397;28;20719;-42
2022/06/23 05:31:46;;;;;;;34.90;10.20;;;;;;;;;;5053818;28;20252;-41
2022/06/23 05:34:14;;;;;;;40.93;11.20;;;;;;;;;;5053688;28;20289;-42
2022/06/23 05:37:04;;;;;;;43.50;11.57;;;;;;;;;;5052633;28;21013;-41
2022/06/23 05:39:42;;;;;;;35.40;11.13;;;;;;;;;;5050171;28;20225;-42
2022/06/23 05:42:11;;;;;;;41.60;10.80;;;;;;;;;;5052922;28;20622;-41
2022/06/23 05:44:43;;;;;;;40.73;11.00;;;;;;;;;;5059963;28;20193;-42
2022/06/23 05:47:11;;;;;;;39.03;11.10;;;;;;;;;;5057712;28;20556;-42
2022/06/23 05:49:43;;;;;;;29.07;10.13;;;;;;;;;;5056565;28;20183;-42
2022/06/23 05:52:32;;;;;;;39.90;10.60;;;;;;;;;;5058643;28;20264;-42
2022/06/23 05:55:02;;;;;;;31.33;10.97;;;;;;;;;;5060823;28;20224;-42
2022/06/23 05:57:34;;;;;;;37.30;11.03;;;;;;;;;;5055822;28;20237;-42
2022/06/23 06:00:22;;;;;;;30.13;10.50;;;;;;;;;;5054510;28;20632;-42
2022/06/23 06:02:53;;;;;;;38.40;10.30;;;;;;;;;;5053030;28;20203;-42
2022/06/23 06:05:26;;;;;;;30.07;11.20;;;;;;;;;;5053708;28;20725;-42
2022/06/23 06:07:52;;;;;;;35.60;11.07;;;;;;;;;;5052480;28;20309;-42
2022/06/23 06:10:21;;;;;;;31.07;10.57;;;;;;;;;;5052810;28;20535;-42
2022/06/23 06:12:48;;;;;;;33.13;10.57;;;;;;;;;;5057471;28;20188;-41
2022/06/23 06:15:36;;;;;;;33.50;11.00;;;;;;;;;;5053775;28;20472;-42
2022/06/23 06:18:15;;;;;;;27.20;11.20;;;;;;;;;;5056462;28;20415;-41
2022/06/23 06:20:41;;;;;;;31.87;12.07;;;;;;;;;;5053140;28;20511;-42
2022/06/23 06:23:08;;;;;;;30.90;11.80;;;;;;;;;;5056880;28;20626;-43
2022/06/23 06:25:37;;;;;;;32.60;11.77;;;;;;;;;;5058225;28;20179;-42
2022/06/23 06:28:16;;;;;;;30.13;11.70;;;;;;;;;;5053629;28;20882;-43
2022/06/23 06:30:46;;;;;;;30.23;11.33;;;;;;;;;;5046731;28;20170;-41
2022/06/23 06:33:17;;;;;;;33.43;11.90;;;;;;;;;;5044334;28;20210;-42
2022/06/23 06:35:44;;;;;;;26.33;11.67;;;;;;;;;;5050339;28;20943;-42
2022/06/23 06:38:14;;;;;;;28.37;12.27;;;;;;;;;;5060022;28;20186;-42
2022/06/23 06:40:43;;;;;;;24.90;11.60;;;;;;;;;;5057617;28;20197;-42
2022/06/23 06:43:12;;;;;;;30.30;11.50;;;;;;;;;;5058211;28;20179;-41
2022/06/23 06:45:38;;;;;;;23.47;11.77;;;;;;;;;;5059020;28;20178;-42
2022/06/23 06:48:09;;;;;;;30.27;12.10;;;;;;;;;;5058096;28;20269;-42
2022/06/23 06:50:35;;;;;;;28.20;13.17;;;;;;;;;;5058844;28;20183;-40
2022/06/23 06:53:07;;;;;;;24.17;12.60;;;;;;;;;;5058579;28;20756;-41
2022/06/23 06:55:37;;;;;;;29.07;14.13;;;;;;;;;;5055964;28;20393;-43
2022/06/23 06:58:06;;;;;;;25.77;12.90;;;;;;;;;;5058958;28;20502;-42
2022/06/23 07:00:35;;;;;;;27.90;12.67;;;;;;;;;;5060522;28;20364;-42
2022/06/23 07:03:03;;;;;;;29.17;12.27;;;;;;;;;;5053304;28;20733;-42
2022/06/23 07:05:48;;;;;;;26.13;12.40;;;;;;;;;;5055593;28;20163;-43
2022/06/23 07:08:17;;;;;;;25.37;12.97;;;;;;;;;;5059320;28;20285;-41
2022/06/23 07:10:45;;;;;;;22.33;12.57;;;;;;;;;;5053967;28;20184;-41
2022/06/23 07:13:16;;;;;;;23.03;14.40;;;;;;;;;;5056276;28;20174;-42
2022/06/23 07:15:46;;;;;;;25.30;14.90;;;;;;;;;;5062304;28;20232;-42
2022/06/23 07:18:18;;;;;;;28.40;13.93;;;;;;;;;;5055931;28;20645;-41
2022/06/23 07:21:03;;;;;;;27.60;14.43;;;;;;;;;;5056737;28;20691;-42
2022/06/23 07:23:43;;;;;;;29.87;14.27;;;;;;;;;;5059054;28;20746;-41
2022/06/23 07:26:28;;;;;;;24.73;12.53;;;;;;;;;;5055311;28;20371;-42
2022/06/23 07:28:59;;;;;;;24.47;13.73;;;;;;;;;;5059794;28;20456;-43
2022/06/23 07:31:31;;;;;;;25.00;13.47;;;;;;;;;;5060023;28;20655;-42
2022/06/23 07:34:05;;;;;;;22.37;13.47;;;;;;;;;;5058560;28;20175;-42
2022/06/23 07:36:58;;;;;;;29.20;13.80;;;;;;;;;;5058215;28;20198;-43
2022/06/23 07:39:29;;;;;;;29.83;13.37;;;;;;;;;;5059836;28;20195;-43
2022/06/23 07:42:00;;;;;;;24.67;12.80;;;;;;;;;;5057692;28;22144;-42
2022/06/23 07:44:37;;;;;;;24.50;12.00;;;;;;;;;;5060210;28;20738;-42
2022/06/23 07:47:03;;;;;;;25.03;11.57;;;;;;;;;;5058169;28;20285;-43
2022/06/23 07:49:31;;;;;;;26.20;12.10;;;;;;;;;;5057914;28;20222;-42
2022/06/23 07:51:57;;;;;;;30.70;11.57;;;;;;;;;;5061397;28;20214;-42
2022/06/23 07:54:24;;;;;;;28.67;11.47;;;;;;;;;;5061107;28;20873;-43
2022/06/23 07:56:50;;;;;;;25.37;10.70;;;;;;;;;;5059293;28;20659;-42
2022/06/23 07:59:18;;;;;;;23.90;10.97;;;;;;;;;;5059026;28;20175;-41
2022/06/23 08:01:47;;;;;;;24.13;10.43;;;;;;;;;;5060931;28;20500;-42
2022/06/23 08:04:13;;;;;;;23.37;11.47;;;;;;;;;;5060238;28;20171;-42
2022/06/23 08:06:40;;;;;;;28.20;9.97;;;;;;;;;;5046245;28;20179;-42
2022/06/23 08:09:14;;;;;;;24.80;9.90;;;;;;;;;;5061866;28;20182;-42
2022/06/23 08:14:29;;;;;;;22.43;9.80;;;;;;;;;;5054238;28;20650;-42
2022/06/23 08:16:55;;;;;;;28.30;10.67;;;;;;;;;;5051698;28;20264;-42
2022/06/23 08:20:00;;;;;;;22.17;8.93;;;;;;;;;;5061563;28;20568;-41
2022/06/23 08:22:28;;;;;;;22.33;9.60;;;;;;;;;;4994855;28;20176;-42
2022/06/23 08:24:57;;;;;;;25.33;9.27;;;;;;;;;;4994651;28;20758;-42
2022/06/23 08:27:28;;;;;;;24.23;8.67;;;;;;;;;;5023854;28;20285;-42
2022/06/23 08:30:05;;;;;;;26.77;9.10;;;;;;;;;;5057998;28;20174;-41
2022/06/23 08:32:31;;;;;;;25.17;9.27;;;;;;;;;;5057403;28;20829;-41
2022/06/23 08:35:08;;;;;;;32.47;10.07;;;;;;;;;;5057201;28;20221;-42
2022/06/23 08:37:40;;;;;;;26.53;9.60;;;;;;;;;;5061501;28;20212;-42
2022/06/23 08:40:26;;;;;;;28.17;9.97;;;;;;;;;;5060849;28;20185;-42
2022/06/23 08:43:19;;;;;;;26.07;10.33;;;;;;;;;;5059742;28;20713;-41
2022/06/23 08:45:55;;;;;;;22.23;8.93;;;;;;;;;;5027172;28;20252;-42
2022/06/23 08:48:21;;;;;;;26.33;9.20;;;;;;;;;;5057261;28;20528;-42
2022/06/23 08:51:06;;;;;;;26.53;9.13;;;;;;;;;;5061313;28;20472;-42
2022/06/23 08:53:48;;;;;;;20.70;8.27;;;;;;;;;;5059167;28;20287;-42
2022/06/23 08:56:22;;;;;;;25.47;9.07;;;;;;;;;;5059460;28;20759;-42
2022/06/23 08:58:53;;;;;;;27.90;9.47;;;;;;;;;;5060473;28;20175;-42
2022/06/23 09:01:28;;;;;;;22.67;7.83;;;;;;;;;;5057165;28;20468;-42
2022/06/23 09:04:13;;;;;;;29.63;7.80;;;;;;;;;;5057571;28;20384;-42
2022/06/23 09:06:42;;;;;;;29.90;8.43;;;;;;;;;;5057106;28;20228;-41
2022/06/23 09:09:27;;;;;;;22.67;8.20;;;;;;;;;;5056086;28;20594;-42
2022/06/23 09:12:12;;;;;;;29.27;8.27;;;;;;;;;;5055827;28;20206;-42
2022/06/23 09:14:41;;;;;;;20.43;7.53;;;;;;;;;;5057847;28;20552;-42
2022/06/23 09:17:26;;;;;;;22.03;8.43;;;;;;;;;;5059506;28;20198;-42
2022/06/23 09:20:02;;;;;;;18.47;7.40;;;;;;;;;;5056094;28;20659;-42
2022/06/23 09:22:28;;;;;;;28.97;8.40;;;;;;;;;;5071308;28;20196;-41
2022/06/23 09:24:54;;;;;;;25.27;7.80;;;;;;;;;;5056951;28;20944;-41
2022/06/23 09:27:26;;;;;;;25.77;8.07;;;;;;;;;;5061533;28;20279;-41
2022/06/23 09:29:52;;;;;;;29.00;8.80;;;;;;;;;;5055682;28;20297;-42
2022/06/23 09:32:21;;;;;;;25.43;8.27;;;;;;;;;;5057895;28;20219;-42
2022/06/23 09:35:00;;;;;;;27.50;8.17;;;;;;;;;;5056360;28;20181;-42
2022/06/23 09:37:39;;;;;;;34.20;8.27;;;;;;;;;;5058455;28;20768;-41
2022/06/23 09:40:05;;;;;;;28.87;8.67;;;;;;;;;;5059850;28;20186;-42
2022/06/23 09:42:50;;;;;;;26.80;8.73;;;;;;;;;;5057410;28;20178;-42
2022/06/23 09:45:21;;;;;;;26.10;8.00;;;;;;;;;;5059032;28;20179;-42
2022/06/23 09:48:06;;;;;;;27.73;8.57;;;;;;;;;;5058655;28;20819;-42
2022/06/23 09:50:45;;;;;;;27.33;7.90;;;;;;;;;;5056043;28;20554;-42
2022/06/23 09:53:17;;;;;;;23.07;7.90;;;;;;;;;;5057305;28;20182;-42
2022/06/23 09:55:52;;;;;;;29.93;8.30;;;;;;;;;;5057185;28;20598;-42
2022/06/23 09:58:41;;;;;;;25.83;7.50;;;;;;;;;;5057680;28;20170;-42
2022/06/23 10:01:23;;;;;;;28.37;8.13;;;;;;;;;;5052872;28;20181;-42
2022/06/23 10:03:58;;;;;;;33.07;8.63;;;;;;;;;;5059471;28;20958;-42
2022/06/23 10:06:40;;;;;;;26.57;8.17;;;;;;;;;;5062065;28;20252;-42
2022/06/23 10:09:12;;;;;;;28.43;7.97;;;;;;;;;;5058927;28;20815;-42
2022/06/23 10:11:41;;;;;;;30.77;7.33;;;;;;;;;;5060701;28;20479;-42
2022/06/23 10:14:15;;;;;;;30.70;7.80;;;;;;;;;;5061009;28;20178;-42
2022/06/23 10:16:41;;;;;;;28.03;8.00;;;;;;;;;;5060393;28;20286;-42
2022/06/23 10:19:18;;;;;;;33.73;7.43;;;;;;;;;;5060500;28;20174;-42
2022/06/23 10:21:44;;;;;;;28.53;8.30;;;;;;;;;;5058289;28;20586;-43
2022/06/23 10:24:16;;;;;;;25.03;7.47;;;;;;;;;;5061938;28;20636;-42
2022/06/23 10:26:52;;;;;;;27.90;7.27;;;;;;;;;;5062383;28;20188;-41
2022/06/23 10:29:21;;;;;;;27.90;7.80;;;;;;;;;;5059081;28;20694;-42
2022/06/23 10:31:47;;;;;;;25.63;7.33;;;;;;;;;;5056303;28;20613;-42
2022/06/23 10:34:26;;;;;;;25.23;8.13;;;;;;;;;;5057247;28;20904;-42
2022/06/23 10:36:52;;;;;;;28.27;7.30;;;;;;;;;;5059589;28;20199;-42
2022/06/23 10:39:36;;;;;;;30.13;7.83;;;;;;;;;;5058746;28;20607;-41
2022/06/23 10:42:23;;;;;;;28.67;8.30;;;;;;;;;;5061554;28;20260;-42
2022/06/23 10:44:59;;;;;;;28.53;9.03;;;;;;;;;;5059412;28;20167;-42
2022/06/23 10:47:41;;;;;;;28.23;8.43;;;;;;;;;;5061038;28;20647;-42
2022/06/23 10:50:07;;;;;;;26.13;7.77;;;;;;;;;;5059256;28;20186;-42
2022/06/23 10:52:36;;;;;;;26.67;7.40;;;;;;;;;;5061889;28;20598;-42
2022/06/23 10:55:14;;;;;;;33.30;9.10;;;;;;;;;;5056998;28;20220;-42
2022/06/23 10:57:55;;;;;;;22.20;7.70;;;;;;;;;;5058657;28;20515;-42
2022/06/23 11:00:34;;;;;;;26.50;7.83;;;;;;;;;;5061735;28;20672;-42
2022/06/23 11:03:09;;;;;;;32.73;8.70;;;;;;;;;;5063343;28;20171;-42
2022/06/23 11:05:56;;;;;;;27.50;8.10;;;;;;;;;;5062713;28;20902;-42
2022/06/23 11:08:41;;;;;;;23.97;7.77;;;;;;;;;;5061384;28;21044;-41
2022/06/23 11:11:19;;;;;;;30.27;8.33;;;;;;;;;;5062094;28;20167;-42
2022/06/23 11:14:00;;;;;;;25.17;7.73;;;;;;;;;;5058629;28;20167;-41
2022/06/23 11:16:50;;;;;;;30.40;7.90;;;;;;;;;;5059375;28;20636;-41
2022/06/23 11:19:25;;;;;;;33.67;8.43;;;;;;;;;;5061779;28;20703;-42
2022/06/23 11:22:01;;;;;;;21.50;7.63;;;;;;;;;;5061014;28;20768;-41
2022/06/23 11:24:42;;;;;;;26.30;7.83;;;;;;;;;;5058841;28;20613;-42
2022/06/23 11:27:23;;;;;;;30.97;8.23;;;;;;;;;;5060062;28;20800;-42
2022/06/23 11:30:02;;;;;;;29.23;7.97;;;;;;;;;;5063772;28;20174;-42
2022/06/23 11:32:49;;;;;;;32.73;8.50;;;;;;;;;;5060885;28;20199;-41
2022/06/23 11:35:15;;;;;;;28.97;8.57;;;;;;;;;;5059903;28;20287;-42
2022/06/23 11:37:41;;;;;;;30.80;8.47;;;;;;;;;;5061295;28;20209;-42
2022/06/23 11:40:14;;;;;;;26.30;7.50;;;;;;;;;;5060809;28;20171;-43
2022/06/23 11:42:55;;;;;;;30.67;8.17;;;;;;;;;;5056024;28;20188;-42
2022/06/23 11:45:34;;;;;;;32.53;8.53;;;;;;;;;;5062712;28;20184;-41
2022/06/23 11:48:00;;;;;;;24.83;8.77;;;;;;;;;;5060088;28;20828;-42
2022/06/23 11:50:42;;;;;;;28.80;9.03;;;;;;;;;;5054537;28;20181;-42
2022/06/23 11:53:27;;;;;;;19.90;7.50;;;;;;;;;;5060593;28;20171;-42
2022/06/23 11:55:57;;;;;;;24.30;8.13;;;;;;;;;;5058389;28;20187;-41
2022/06/23 11:58:33;;;;;;;25.27;8.30;;;;;;;;;;5056738;28;20171;-43
2022/06/23 12:01:19;;;;;;;26.57;8.70;;;;;;;;;;5061097;28;20248;-42
2022/06/23 12:03:52;;;;;;;22.07;7.83;;;;;;;;;;5057385;28;20886;-43
2022/06/23 12:06:31;;;;;;;29.40;8.17;;;;;;;;;;5056176;28;20184;-43
2022/06/23 12:09:12;;;;;;;36.63;9.50;;;;;;;;;;5059547;28;20460;-42
2022/06/23 12:11:39;;;;;;;31.03;7.67;;;;;;;;;;5055122;28;20652;-41
2022/06/23 12:14:07;;;;;;;23.57;7.23;;;;;;;;;;5056697;28;20694;-43
2022/06/23 12:16:37;;;;;;;24.67;7.53;;;;;;;;;;5054353;28;20227;-42
2022/06/23 12:19:08;;;;;;;27.80;8.67;;;;;;;;;;5062869;28;20170;-42
2022/06/23 12:21:37;;;;;;;25.27;7.63;;;;;;;;;;5054254;28;20175;-43
2022/06/23 12:24:16;;;;;;;24.23;8.10;;;;;;;;;;5049028;28;21532;-43
2022/06/23 12:26:52;;;;;;;22.57;7.97;;;;;;;;;;5054105;28;20205;-42
2022/06/23 12:29:24;;;;;;;29.33;8.30;;;;;;;;;;5058153;28;20281;-42
2022/06/23 12:32:22;;;;;;;24.97;7.90;;;;;;;;;;5056473;28;20198;-42
2022/06/23 12:35:02;;;;;;;35.00;8.63;;;;;;;;;;5020568;28;20202;-43
2022/06/23 12:37:46;;;;;;;22.73;8.87;;;;;;;;;;5062179;28;20293;-43
2022/06/23 12:40:20;;;;;;;28.93;9.00;;;;;;;;;;5055391;28;20371;-43
2022/06/23 12:42:49;;;;;;;29.67;8.17;;;;;;;;;;5058472;28;20405;-43
2022/06/23 12:45:31;;;;;;;30.90;9.90;;;;;;;;;;5052089;28;20607;-43
2022/06/23 12:47:57;;;;;;;29.83;9.23;;;;;;;;;;5072086;27;20302;-42
2022/06/23 12:50:26;;;;;;;31.03;9.30;;;;;;;;;;5056044;28;20544;-43
2022/06/23 12:53:11;;;;;;;26.23;8.70;;;;;;;;;;5054874;28;20634;-43
2022/06/23 12:55:56;;;;;;;29.73;9.10;;;;;;;;;;5054850;28;20181;-42
2022/06/23 12:58:22;;;;;;;23.23;8.20;;;;;;;;;;5059400;28;20217;-43
2022/06/23 13:00:54;;;;;;;33.33;9.23;;;;;;;;;;5058031;28;20184;-41
2022/06/23 13:03:31;;;;;;;23.27;8.20;;;;;;;;;;5057607;28;20183;-43
2022/06/23 13:06:02;;;;;;;34.50;9.47;;;;;;;;;;5057100;28;20174;-42
2022/06/23 13:08:28;;;;;;;34.70;8.87;;;;;;;;;;5057465;28;20504;-43
2022/06/23 13:11:14;;;;;;;24.47;8.43;;;;;;;;;;5055260;28;20202;-43
2022/06/23 13:14:00;;;;;;;22.80;8.60;;;;;;;;;;5057395;28;20179;-43
2022/06/23 13:16:37;;;;;;;30.23;9.10;;;;;;;;;;5060133;28;20198;-43
2022/06/23 13:19:05;;;;;;;25.90;8.10;;;;;;;;;;5059193;28;20757;-42
2022/06/23 13:21:32;;;;;;;30.03;9.37;;;;;;;;;;5056382;28;20174;-43
2022/06/23 13:24:10;;;;;;;30.07;9.30;;;;;;;;;;5054984;28;20510;-42
2022/06/23 13:26:55;;;;;;;29.67;8.67;;;;;;;;;;5058611;28;20190;-42
2022/06/23 13:29:23;;;;;;;28.57;9.70;;;;;;;;;;5054908;28;20178;-43
2022/06/23 13:32:01;;;;;;;29.97;9.03;;;;;;;;;;5055650;28;20611;-41
2022/06/23 13:34:30;;;;;;;33.50;9.20;;;;;;;;;;5062020;28;20182;-42
2022/06/23 13:37:13;;;;;;;28.27;8.97;;;;;;;;;;5061650;28;20586;-43
2022/06/23 13:39:53;;;;;;;35.60;9.37;;;;;;;;;;5056735;28;20429;-41
2022/06/23 13:42:49;;;;;;;31.77;9.83;;;;;;;;;;5060311;28;20265;-42
2022/06/23 13:45:24;;;;;;;36.20;9.43;;;;;;;;;;5044872;28;21041;-42
2022/06/23 13:47:59;;;;;;;31.93;9.33;;;;;;;;;;5060433;28;20189;-43
2022/06/23 13:50:29;;;;;;;32.07;8.97;;;;;;;;;;5057335;28;20975;-43
2022/06/23 13:53:02;;;;;;;27.63;8.37;;;;;;;;;;5058846;28;20192;-42
2022/06/23 13:55:37;;;;;;;32.83;9.23;;;;;;;;;;5064315;28;20175;-43
2022/06/23 13:58:03;;;;;;;19.83;7.30;;;;;;;;;;5058523;28;20194;-43
2022/06/23 14:00:43;;;;;;;39.27;7.53;;;;;;;;;;5060153;28;20210;-40
2022/06/23 14:03:17;;;;;;;29.67;7.10;;;;;;;;;;5063301;28;20179;-43
2022/06/23 14:05:53;;;;;;;27.70;7.63;;;;;;;;;;5061006;28;20170;-41
2022/06/23 14:08:28;;;;;;;26.83;7.00;;;;;;;;;;5059841;28;20185;-42
2022/06/23 14:11:13;;;;;;;30.93;7.27;;;;;;;;;;5064261;28;20602;-42
2022/06/23 14:13:50;;;;;;;35.10;7.00;;;;;;;;;;5061751;28;20186;-43
2022/06/23 14:16:36;;;;;;;28.47;6.87;;;;;;;;;;5061388;28;20757;-41
2022/06/23 14:19:08;;;;;;;29.83;7.33;;;;;;;;;;5064534;28;20186;-43
2022/06/23 14:21:48;;;;;;;30.80;7.63;;;;;;;;;;5062551;28;20202;-43
2022/06/23 14:24:26;;;;;;;22.70;6.60;;;;;;;;;;5060507;28;21273;-43
2022/06/23 14:26:55;;;;;;;26.43;6.77;;;;;;;;;;5060194;28;20251;-43
2022/06/23 14:29:40;;;;;;;28.63;7.03;;;;;;;;;;5060281;28;20179;-43
2022/06/23 14:32:09;;;;;;;24.73;7.33;;;;;;;;;;5057051;28;20707;-41
2022/06/23 14:34:39;;;;;;;28.17;6.97;;;;;;;;;;5057586;28;20205;-43
2022/06/23 14:37:05;;;;;;;21.23;6.83;;;;;;;;;;5060416;28;20622;-41
2022/06/23 14:39:46;;;;;;;29.53;6.90;;;;;;;;;;5058874;28;20657;-42
2022/06/23 14:42:29;;;;;;;30.33;7.50;;;;;;;;;;5055632;28;20205;-43
2022/06/23 14:45:14;;;;;;;26.33;8.73;;;;;;;;;;5057608;28;20203;-42
2022/06/23 14:47:40;;;;;;;26.53;7.87;;;;;;;;;;5060023;28;20627;-43
2022/06/23 14:50:06;;;;;;;25.23;7.90;;;;;;;;;;5057117;28;20179;-43
2022/06/23 14:52:37;;;;;;;26.10;7.60;;;;;;;;;;5060441;28;20654;-43
2022/06/23 14:55:21;;;;;;;25.10;7.63;;;;;;;;;;5059312;28;20187;-43
2022/06/23 14:57:56;;;;;;;24.87;7.40;;;;;;;;;;5056974;28;20636;-43
2022/06/23 15:00:37;;;;;;;20.73;7.23;;;;;;;;;;5060692;28;20625;-43
2022/06/23 15:03:06;;;;;;;22.43;6.97;;;;;;;;;;5059673;28;20252;-43
2022/06/23 15:05:32;;;;;;;28.17;8.20;;;;;;;;;;5057808;28;21612;-41
2022/06/23 15:08:01;;;;;;;32.07;6.70;;;;;;;;;;5058093;28;20856;-43
2022/06/23 15:10:46;;;;;;;33.17;7.70;;;;;;;;;;5059447;28;20632;-43